Time;durP1;ratioP1;P1;durP2;ratioP2;P2;SDS_P1;SDS_P2;PMS_P1;PMS_P2;Temp;Humidity;BMP_temperature;BMP_pressure;BME280_temperature;BME280_humidity;BME280_pressure;Samples;Min_cycle;Max_cycle;Signal;HPM_P1;HPM_P2
2021/05/27 00:01:20;;;;;;;3.80;2.10;;;;;;;;;;5054275;28;20630;-57
2021/05/27 00:03:47;;;;;;;4.43;1.50;;;;;;;;;;5054157;28;20043;-57
2021/05/27 00:06:14;;;;;;;4.63;1.83;;;;;;;;;;5054354;28;20022;-57
2021/05/27 00:08:41;;;;;;;6.57;2.00;;;;;;;;;;5053919;28;20395;-57
2021/05/27 00:11:08;;;;;;;2.80;1.50;;;;;;;;;;5054568;28;20377;-57
2021/05/27 00:13:35;;;;;;;6.07;1.50;;;;;;;;;;5054145;28;20025;-57
2021/05/27 00:16:02;;;;;;;5.00;1.63;;;;;;;;;;5054089;28;20463;-57
2021/05/27 00:18:29;;;;;;;5.87;1.60;;;;;;;;;;5053938;28;20453;-57
2021/05/27 00:20:55;;;;;;;2.63;1.53;;;;;;;;;;5053921;28;20029;-58
2021/05/27 00:23:22;;;;;;;2.73;1.67;;;;;;;;;;5053785;28;20036;-58
2021/05/27 00:25:49;;;;;;;4.57;1.73;;;;;;;;;;5053716;28;20021;-57
2021/05/27 00:28:16;;;;;;;3.00;1.90;;;;;;;;;;5053647;28;20041;-58
2021/05/27 00:30:42;;;;;;;3.53;1.90;;;;;;;;;;5053632;28;20434;-57
2021/05/27 00:33:09;;;;;;;4.37;1.53;;;;;;;;;;5053618;28;20021;-57
2021/05/27 00:35:36;;;;;;;6.03;2.07;;;;;;;;;;5053603;28;20021;-58
2021/05/27 00:38:03;;;;;;;7.30;2.43;;;;;;;;;;5053610;28;20033;-58
2021/05/27 00:40:30;;;;;;;4.40;1.60;;;;;;;;;;5053425;28;20025;-57
2021/05/27 00:42:56;;;;;;;4.03;1.83;;;;;;;;;;5053585;28;20029;-57
2021/05/27 00:45:23;;;;;;;4.77;1.60;;;;;;;;;;5053337;28;20158;-57
2021/05/27 00:47:50;;;;;;;3.83;1.40;;;;;;;;;;5053578;28;20039;-57
2021/05/27 00:50:21;;;;;;;7.37;1.80;;;;;;;;;;5053333;28;20403;-57
2021/05/27 00:52:49;;;;;;;3.67;1.83;;;;;;;;;;5053282;28;20025;-57
2021/05/27 00:55:15;;;;;;;3.73;1.77;;;;;;;;;;5053371;28;20025;-57
2021/05/27 00:57:42;;;;;;;4.30;1.80;;;;;;;;;;5053138;28;20040;-57
2021/05/27 01:00:21;;;;;;;7.60;1.63;;;;;;;;;;5053312;28;20092;-57
2021/05/27 01:02:48;;;;;;;3.27;2.00;;;;;;;;;;5053025;28;20087;-57
2021/05/27 01:05:16;;;;;;;7.60;1.80;;;;;;;;;;5052680;28;20029;-57
2021/05/27 01:07:43;;;;;;;2.80;1.43;;;;;;;;;;5052894;28;20041;-58
2021/05/27 01:10:23;;;;;;;4.30;1.63;;;;;;;;;;5053380;28;20068;-58
2021/05/27 01:12:56;;;;;;;5.77;1.60;;;;;;;;;;5036381;28;20032;-56
2021/05/27 01:15:32;;;;;;;4.53;1.57;;;;;;;;;;5052641;28;20033;-57
2021/05/27 01:18:19;;;;;;;7.40;1.87;;;;;;;;;;5052827;28;20044;-57
2021/05/27 01:20:47;;;;;;;3.47;1.17;;;;;;;;;;5052831;28;20021;-57
2021/05/27 01:23:14;;;;;;;14.10;1.57;;;;;;;;;;5052912;28;20407;-57
2021/05/27 01:25:52;;;;;;;2.80;1.40;;;;;;;;;;5052799;28;20063;-57
2021/05/27 01:28:19;;;;;;;2.10;1.20;;;;;;;;;;5052837;28;20479;-57
2021/05/27 01:30:46;;;;;;;4.23;1.20;;;;;;;;;;5052649;28;20074;-57
2021/05/27 01:33:15;;;;;;;2.47;1.20;;;;;;;;;;5052765;28;20017;-57
2021/05/27 01:35:42;;;;;;;2.50;1.50;;;;;;;;;;5052594;28;20028;-57
2021/05/27 01:38:28;;;;;;;4.30;1.97;;;;;;;;;;5052748;28;20029;-57
2021/05/27 01:40:55;;;;;;;2.60;1.20;;;;;;;;;;5052619;28;20029;-58
2021/05/27 01:43:22;;;;;;;2.23;1.33;;;;;;;;;;5052551;28;20028;-57
2021/05/27 01:45:50;;;;;;;2.87;1.30;;;;;;;;;;5052542;28;20025;-57
2021/05/27 01:48:17;;;;;;;10.90;1.80;;;;;;;;;;5052473;28;20037;-57
2021/05/27 01:50:44;;;;;;;2.07;1.37;;;;;;;;;;5052471;28;20530;-57
2021/05/27 01:53:11;;;;;;;6.47;1.40;;;;;;;;;;5052531;28;20029;-57
2021/05/27 01:55:48;;;;;;;1.83;1.10;;;;;;;;;;5052694;28;20033;-57
2021/05/27 01:58:15;;;;;;;5.17;1.50;;;;;;;;;;5052580;28;20036;-57
2021/05/27 02:00:43;;;;;;;5.33;1.57;;;;;;;;;;5052235;28;20021;-57
2021/05/27 02:03:10;;;;;;;2.40;1.20;;;;;;;;;;5052318;28;20434;-58
2021/05/27 02:05:37;;;;;;;1.80;1.20;;;;;;;;;;5052429;28;20053;-57
2021/05/27 02:08:04;;;;;;;4.73;1.73;;;;;;;;;;5052295;28;20040;-57
2021/05/27 02:10:31;;;;;;;4.03;1.57;;;;;;;;;;5052714;28;20045;-57
2021/05/27 02:12:57;;;;;;;2.97;1.13;;;;;;;;;;5052333;28;20059;-57
2021/05/27 02:15:24;;;;;;;3.13;1.40;;;;;;;;;;5034775;28;20072;-57
2021/05/27 02:17:51;;;;;;;2.97;1.50;;;;;;;;;;5056524;28;20028;-57
2021/05/27 02:20:18;;;;;;;1.90;1.20;;;;;;;;;;5056158;28;20067;-57
2021/05/27 02:22:45;;;;;;;2.57;1.13;;;;;;;;;;5056288;28;20070;-57
2021/05/27 02:25:12;;;;;;;3.07;1.40;;;;;;;;;;5056043;28;20021;-57
2021/05/27 02:27:39;;;;;;;4.47;1.60;;;;;;;;;;5055911;28;20376;-57
2021/05/27 02:30:06;;;;;;;5.00;1.60;;;;;;;;;;5055971;28;20060;-57
2021/05/27 02:32:33;;;;;;;3.43;1.30;;;;;;;;;;5055965;28;20074;-57
2021/05/27 02:35:00;;;;;;;2.40;1.10;;;;;;;;;;5055830;28;20025;-57
2021/05/27 02:37:26;;;;;;;2.13;1.30;;;;;;;;;;5055994;28;20021;-57
2021/05/27 02:39:53;;;;;;;3.73;1.30;;;;;;;;;;5055906;28;20029;-57
2021/05/27 02:42:20;;;;;;;5.03;1.97;;;;;;;;;;5055810;28;20021;-57
2021/05/27 02:44:47;;;;;;;6.50;1.57;;;;;;;;;;5055712;28;20107;-57
2021/05/27 02:47:14;;;;;;;8.70;2.17;;;;;;;;;;5055726;28;20037;-57
2021/05/27 02:49:42;;;;;;;6.00;1.70;;;;;;;;;;5055686;28;20079;-58
2021/05/27 02:52:09;;;;;;;2.63;1.27;;;;;;;;;;5037767;28;20491;-57
2021/05/27 02:54:35;;;;;;;3.03;1.50;;;;;;;;;;5055533;28;20029;-58
2021/05/27 02:57:02;;;;;;;2.97;1.40;;;;;;;;;;5055617;28;20388;-57
2021/05/27 02:59:29;;;;;;;3.13;1.50;;;;;;;;;;5055519;28;20490;-57
2021/05/27 03:01:56;;;;;;;3.20;1.40;;;;;;;;;;5055758;28;20051;-57
2021/05/27 03:04:23;;;;;;;3.23;1.30;;;;;;;;;;5055352;28;20039;-58
2021/05/27 03:06:49;;;;;;;3.73;1.10;;;;;;;;;;5055259;28;20024;-57
2021/05/27 03:09:16;;;;;;;3.10;1.20;;;;;;;;;;5055356;28;20036;-57
2021/05/27 03:11:43;;;;;;;5.77;1.10;;;;;;;;;;5055868;28;20048;-57
2021/05/27 03:14:10;;;;;;;1.90;1.00;;;;;;;;;;5055454;28;20106;-57
2021/05/27 03:16:36;;;;;;;5.90;1.10;;;;;;;;;;5055298;28;20031;-57
2021/05/27 03:19:03;;;;;;;2.20;1.10;;;;;;;;;;5055055;28;20027;-57
2021/05/27 03:21:30;;;;;;;4.87;1.00;;;;;;;;;;5055842;28;20028;-57
2021/05/27 03:23:57;;;;;;;3.63;1.23;;;;;;;;;;5037169;28;20017;-57
2021/05/27 03:26:24;;;;;;;3.60;0.90;;;;;;;;;;5054669;28;20443;-57
2021/05/27 03:28:51;;;;;;;2.73;1.10;;;;;;;;;;5054752;28;20037;-58
2021/05/27 03:31:18;;;;;;;1.73;0.97;;;;;;;;;;5054615;28;20029;-57
2021/05/27 03:33:45;;;;;;;2.97;0.80;;;;;;;;;;5036991;28;20059;-57
2021/05/27 03:36:11;;;;;;;4.47;1.00;;;;;;;;;;5054656;28;20472;-57
2021/05/27 03:38:38;;;;;;;4.27;1.00;;;;;;;;;;5054567;28;20430;-57
2021/05/27 03:41:05;;;;;;;2.60;1.07;;;;;;;;;;5054803;28;20052;-57
2021/05/27 03:43:32;;;;;;;2.77;0.90;;;;;;;;;;5054635;28;20021;-57
2021/05/27 03:46:00;;;;;;;4.57;1.03;;;;;;;;;;5054501;28;20056;-57
2021/05/27 03:48:27;;;;;;;2.30;0.87;;;;;;;;;;5054278;28;20419;-57
2021/05/27 03:50:53;;;;;;;2.63;0.93;;;;;;;;;;5054486;28;20029;-57
2021/05/27 03:53:20;;;;;;;2.10;0.90;;;;;;;;;;5054247;28;20086;-57
2021/05/27 03:55:48;;;;;;;3.40;0.80;;;;;;;;;;5054332;28;20083;-58
2021/05/27 04:01:07;;;;;;;4.40;1.10;;;;;;;;;;5015990;28;20032;-58
2021/05/27 04:09:15;;;;;;;2.60;0.95;;;;;;;;;;5054228;28;20036;-57
2021/05/27 04:11:42;;;;;;;4.23;0.93;;;;;;;;;;5054554;28;20407;-58
2021/05/27 04:14:08;;;;;;;5.83;1.97;;;;;;;;;;5054103;28;20025;-58
2021/05/27 04:16:35;;;;;;;3.83;0.90;;;;;;;;;;5054122;28;20103;-58
2021/05/27 04:19:02;;;;;;;4.40;1.20;;;;;;;;;;5053910;28;20464;-58
2021/05/27 04:21:29;;;;;;;2.57;0.73;;;;;;;;;;5053927;28;20033;-58
2021/05/27 04:23:56;;;;;;;3.17;0.90;;;;;;;;;;5036039;28;20025;-58
2021/05/27 04:26:23;;;;;;;4.13;0.70;;;;;;;;;;5053995;28;20048;-58
2021/05/27 04:28:49;;;;;;;4.90;0.97;;;;;;;;;;5035886;28;20203;-58
2021/05/27 04:31:18;;;;;;;3.60;0.93;;;;;;;;;;5053726;28;20364;-58
2021/05/27 04:33:48;;;;;;;4.73;0.80;;;;;;;;;;5053676;28;20035;-58
2021/05/27 04:36:16;;;;;;;3.43;0.80;;;;;;;;;;5053618;28;20021;-58
2021/05/27 04:38:44;;;;;;;2.33;0.70;;;;;;;;;;5052788;28;20021;-58
2021/05/27 04:41:11;;;;;;;3.03;0.63;;;;;;;;;;5053671;28;20037;-58
2021/05/27 04:43:41;;;;;;;4.00;1.10;;;;;;;;;;5054134;28;20030;-58
2021/05/27 04:46:08;;;;;;;2.90;0.63;;;;;;;;;;5053368;28;20458;-58
2021/05/27 04:48:35;;;;;;;0.40;0.40;;;;;;;;;;5053251;28;20061;-58
2021/05/27 04:51:02;;;;;;;3.57;0.60;;;;;;;;;;5053262;28;20032;-58
2021/05/27 04:53:29;;;;;;;1.90;0.63;;;;;;;;;;5053269;28;20029;-58
2021/05/27 04:55:56;;;;;;;1.20;0.50;;;;;;;;;;5053665;28;20024;-58
2021/05/27 04:58:22;;;;;;;1.70;0.50;;;;;;;;;;5053404;28;20033;-58
2021/05/27 05:00:50;;;;;;;1.70;0.77;;;;;;;;;;5053144;28;20051;-58
2021/05/27 05:03:17;;;;;;;1.10;0.43;;;;;;;;;;5053329;28;20472;-58
2021/05/27 05:05:44;;;;;;;3.17;0.60;;;;;;;;;;5053122;28;20029;-58
2021/05/27 05:08:11;;;;;;;2.00;0.47;;;;;;;;;;5053000;28;20403;-58
2021/05/27 05:10:38;;;;;;;2.83;0.63;;;;;;;;;;5053481;28;20056;-58
2021/05/27 05:13:06;;;;;;;2.87;0.90;;;;;;;;;;5053045;28;20041;-58
2021/05/27 05:15:34;;;;;;;1.53;0.90;;;;;;;;;;5053108;28;20021;-58
2021/05/27 05:18:04;;;;;;;2.07;0.70;;;;;;;;;;5052948;28;20035;-58
2021/05/27 05:20:32;;;;;;;2.17;0.70;;;;;;;;;;5053145;28;20105;-58
2021/05/27 05:22:59;;;;;;;4.10;0.67;;;;;;;;;;5052822;28;20021;-58
2021/05/27 05:25:26;;;;;;;3.50;0.53;;;;;;;;;;5052967;28;20029;-58
2021/05/27 05:27:54;;;;;;;3.07;0.70;;;;;;;;;;5052887;28;20028;-58
2021/05/27 05:30:21;;;;;;;2.93;0.57;;;;;;;;;;5052910;28;20491;-58
2021/05/27 05:32:48;;;;;;;2.90;0.60;;;;;;;;;;5052878;28;20040;-58
2021/05/27 05:35:16;;;;;;;2.53;0.60;;;;;;;;;;5052731;28;20029;-57
2021/05/27 05:37:44;;;;;;;1.57;0.70;;;;;;;;;;5052696;28;20035;-58
2021/05/27 05:40:12;;;;;;;2.47;0.63;;;;;;;;;;5052756;28;20021;-58
2021/05/27 05:42:39;;;;;;;1.33;0.50;;;;;;;;;;5052613;28;20029;-58
2021/05/27 05:45:07;;;;;;;4.73;0.50;;;;;;;;;;5052636;28;20086;-58
2021/05/27 05:47:33;;;;;;;1.70;0.40;;;;;;;;;;5052626;28;20068;-58
2021/05/27 05:50:02;;;;;;;3.30;0.93;;;;;;;;;;5054852;28;20032;-58
2021/05/27 05:52:29;;;;;;;5.00;1.20;;;;;;;;;;5059311;28;20368;-58
2021/05/27 05:54:56;;;;;;;1.83;1.10;;;;;;;;;;5059184;28;20037;-58
2021/05/27 05:57:36;;;;;;;2.43;1.20;;;;;;;;;;5059307;28;20017;-58
2021/05/27 06:00:03;;;;;;;4.23;1.50;;;;;;;;;;5058937;28;20033;-58
2021/05/27 06:02:30;;;;;;;3.07;0.90;;;;;;;;;;5059102;28;20388;-58
2021/05/27 06:04:57;;;;;;;3.80;0.83;;;;;;;;;;5059083;28;20381;-58
2021/05/27 06:07:24;;;;;;;3.10;0.97;;;;;;;;;;5059002;28;20458;-58
2021/05/27 06:09:50;;;;;;;2.43;1.20;;;;;;;;;;5058974;28;20379;-58
2021/05/27 06:12:17;;;;;;;4.53;1.60;;;;;;;;;;5059636;28;20073;-58
2021/05/27 06:14:44;;;;;;;5.23;1.33;;;;;;;;;;5059042;28;20082;-58
2021/05/27 06:17:11;;;;;;;2.97;1.33;;;;;;;;;;5058982;28;20112;-58
2021/05/27 06:19:37;;;;;;;6.23;2.40;;;;;;;;;;5058912;28;20052;-58
2021/05/27 06:22:06;;;;;;;3.10;1.90;;;;;;;;;;5058853;28;20031;-58
2021/05/27 06:24:33;;;;;;;3.40;1.40;;;;;;;;;;5058955;28;20365;-58
2021/05/27 06:27:00;;;;;;;4.33;1.23;;;;;;;;;;5058874;28;20116;-58
2021/05/27 06:29:26;;;;;;;6.27;2.20;;;;;;;;;;5058815;28;20067;-58
2021/05/27 06:31:53;;;;;;;3.90;1.70;;;;;;;;;;5058832;28;20103;-58
2021/05/27 06:34:20;;;;;;;2.13;1.13;;;;;;;;;;5058787;28;20385;-58
2021/05/27 06:36:47;;;;;;;3.23;2.27;;;;;;;;;;5058838;28;20021;-58
2021/05/27 06:39:13;;;;;;;2.80;1.30;;;;;;;;;;5058892;28;20150;-58
2021/05/27 06:41:40;;;;;;;3.67;1.40;;;;;;;;;;5058654;28;20033;-58
2021/05/27 06:44:07;;;;;;;2.97;1.30;;;;;;;;;;5058792;28;20031;-58
2021/05/27 06:46:34;;;;;;;4.77;1.30;;;;;;;;;;5058727;28;20052;-58
2021/05/27 06:49:01;;;;;;;3.73;1.20;;;;;;;;;;5058851;28;20388;-58
2021/05/27 06:51:28;;;;;;;1.47;0.80;;;;;;;;;;5058678;28;20107;-58
2021/05/27 06:53:55;;;;;;;1.70;0.73;;;;;;;;;;5058795;28;20376;-58
2021/05/27 06:56:22;;;;;;;5.00;1.33;;;;;;;;;;5058657;28;20048;-58
2021/05/27 06:58:48;;;;;;;2.87;1.23;;;;;;;;;;5058446;28;20060;-58
2021/05/27 07:01:15;;;;;;;4.13;0.90;;;;;;;;;;5057063;28;20064;-58
2021/05/27 07:03:42;;;;;;;3.60;1.43;;;;;;;;;;5055539;28;20476;-58
2021/05/27 07:06:09;;;;;;;2.80;1.20;;;;;;;;;;5055394;28;20033;-58
2021/05/27 07:08:36;;;;;;;6.43;1.50;;;;;;;;;;5055498;28;20069;-58
2021/05/27 07:11:03;;;;;;;5.40;1.50;;;;;;;;;;5055830;28;20064;-58
2021/05/27 07:13:30;;;;;;;6.43;1.83;;;;;;;;;;5055354;28;20052;-58
2021/05/27 07:15:57;;;;;;;9.73;2.13;;;;;;;;;;5055285;28;20047;-58
2021/05/27 07:18:24;;;;;;;5.40;1.70;;;;;;;;;;5055117;28;20032;-58
2021/05/27 07:20:50;;;;;;;3.40;1.60;;;;;;;;;;5055245;28;20025;-58
2021/05/27 07:23:18;;;;;;;6.13;2.60;;;;;;;;;;5055157;28;20031;-57
2021/05/27 07:25:45;;;;;;;4.37;1.33;;;;;;;;;;5055029;28;20498;-58
2021/05/27 07:28:12;;;;;;;2.40;1.07;;;;;;;;;;5055208;28;20167;-58
2021/05/27 07:30:39;;;;;;;3.83;0.90;;;;;;;;;;5055043;28;20021;-57
2021/05/27 07:33:06;;;;;;;1.80;0.97;;;;;;;;;;5054960;28;20122;-58
2021/05/27 07:35:32;;;;;;;2.90;1.03;;;;;;;;;;5054911;28;20017;-58
2021/05/27 07:38:00;;;;;;;3.30;1.23;;;;;;;;;;5054679;28;20415;-58
2021/05/27 07:40:27;;;;;;;4.17;1.00;;;;;;;;;;5054709;28;20028;-58
2021/05/27 07:42:54;;;;;;;2.80;1.23;;;;;;;;;;5054575;28;20442;-58
2021/05/27 07:45:21;;;;;;;4.70;1.27;;;;;;;;;;5054699;28;20071;-58
2021/05/27 07:47:48;;;;;;;1.90;0.97;;;;;;;;;;5054588;28;20041;-58
2021/05/27 07:50:20;;;;;;;2.73;1.23;;;;;;;;;;5054702;28;20083;-58
2021/05/27 07:52:47;;;;;;;3.00;1.30;;;;;;;;;;5054642;28;20025;-58
2021/05/27 07:55:14;;;;;;;6.80;1.40;;;;;;;;;;5054439;28;20543;-58
2021/05/27 07:57:41;;;;;;;4.10;1.37;;;;;;;;;;5054448;28;20025;-58
2021/05/27 08:00:08;;;;;;;2.90;1.40;;;;;;;;;;5036457;28;20040;-57
2021/05/27 08:02:35;;;;;;;6.07;1.20;;;;;;;;;;5054469;28;20089;-57
2021/05/27 08:05:02;;;;;;;2.93;1.10;;;;;;;;;;5054417;28;20033;-57
2021/05/27 08:07:29;;;;;;;3.83;1.17;;;;;;;;;;5054309;28;20102;-58
2021/05/27 08:09:55;;;;;;;3.07;1.20;;;;;;;;;;5054140;28;20032;-57
2021/05/27 08:12:22;;;;;;;5.07;1.10;;;;;;;;;;5054462;28;20075;-58
2021/05/27 08:14:49;;;;;;;2.57;1.00;;;;;;;;;;5053232;28;20028;-58
2021/05/27 08:17:16;;;;;;;3.70;1.30;;;;;;;;;;5053971;28;20039;-58
2021/05/27 08:19:43;;;;;;;6.13;1.73;;;;;;;;;;5053931;28;20024;-57
2021/05/27 08:22:10;;;;;;;4.00;1.40;;;;;;;;;;5054175;28;20053;-58
2021/05/27 08:24:37;;;;;;;4.37;1.30;;;;;;;;;;5053881;28;20044;-57
2021/05/27 08:27:04;;;;;;;3.03;1.23;;;;;;;;;;5053965;28;20033;-57
2021/05/27 08:29:31;;;;;;;2.67;1.10;;;;;;;;;;5053831;28;20037;-58
2021/05/27 08:31:57;;;;;;;5.50;1.80;;;;;;;;;;5053864;28;20025;-58
2021/05/27 08:34:24;;;;;;;4.53;1.20;;;;;;;;;;5053857;28;20441;-57
2021/05/27 08:36:51;;;;;;;3.23;1.40;;;;;;;;;;5053776;28;20025;-58
2021/05/27 08:39:18;;;;;;;3.87;1.30;;;;;;;;;;5053475;28;20033;-58
2021/05/27 08:41:48;;;;;;;6.37;1.63;;;;;;;;;;5053680;28;20079;-57
2021/05/27 08:44:15;;;;;;;4.03;1.70;;;;;;;;;;5053492;28;20021;-57
2021/05/27 08:46:42;;;;;;;3.03;1.43;;;;;;;;;;5053672;28;20029;-57
2021/05/27 08:49:09;;;;;;;6.23;1.93;;;;;;;;;;5053431;28;20109;-58
2021/05/27 08:51:36;;;;;;;2.77;1.30;;;;;;;;;;5053525;28;20025;-58
2021/05/27 08:54:04;;;;;;;3.57;1.30;;;;;;;;;;5053296;28;20158;-57
2021/05/27 08:56:31;;;;;;;6.83;1.70;;;;;;;;;;5053261;28;20028;-58
2021/05/27 08:58:58;;;;;;;3.53;1.47;;;;;;;;;;5053314;28;20029;-57
2021/05/27 09:01:25;;;;;;;3.47;1.67;;;;;;;;;;5053099;28;20376;-58
2021/05/27 09:03:54;;;;;;;4.37;1.40;;;;;;;;;;5053190;28;20040;-57
2021/05/27 09:06:21;;;;;;;4.20;1.50;;;;;;;;;;5053198;28;20024;-58
2021/05/27 09:08:48;;;;;;;7.30;1.97;;;;;;;;;;5052952;28;20044;-58
2021/05/27 09:11:17;;;;;;;6.63;1.67;;;;;;;;;;5053668;28;20442;-58
2021/05/27 09:14:01;;;;;;;4.07;1.63;;;;;;;;;;5053191;28;20017;-58
2021/05/27 09:16:28;;;;;;;4.95;1.35;;;;;;;;;;5052922;28;20029;-58
2021/05/27 09:18:55;;;;;;;6.13;1.47;;;;;;;;;;5052905;28;20032;-58
2021/05/27 09:21:35;;;;;;;7.03;2.00;;;;;;;;;;5035005;28;20025;-58
2021/05/27 09:24:02;;;;;;;4.67;1.57;;;;;;;;;;5052792;28;20049;-58
2021/05/27 09:26:29;;;;;;;2.17;1.30;;;;;;;;;;5052776;28;20028;-58
2021/05/27 09:29:12;;;;;;;3.50;1.20;;;;;;;;;;5052700;28;20064;-58
2021/05/27 09:31:57;;;;;;;2.50;1.10;;;;;;;;;;5052835;28;20036;-58
2021/05/27 09:34:40;;;;;;;2.70;1.10;;;;;;;;;;5053039;28;20025;-58
2021/05/27 09:37:07;;;;;;;4.03;1.00;;;;;;;;;;5052794;28;20056;-58
2021/05/27 09:39:40;;;;;;;3.20;1.40;;;;;;;;;;5052640;28;20583;-58
2021/05/27 09:42:10;;;;;;;4.60;1.40;;;;;;;;;;5052820;28;20032;-58
2021/05/27 09:44:37;;;;;;;3.70;1.00;;;;;;;;;;5052604;28;20037;-58
2021/05/27 09:47:04;;;;;;;4.30;1.67;;;;;;;;;;5052884;28;20147;-58
2021/05/27 09:49:33;;;;;;;5.97;1.60;;;;;;;;;;5052396;28;20037;-58
2021/05/27 09:52:21;;;;;;;4.80;1.63;;;;;;;;;;5052590;28;20087;-58
2021/05/27 09:54:52;;;;;;;5.00;1.60;;;;;;;;;;5052779;28;20384;-58
2021/05/27 09:57:22;;;;;;;5.57;1.37;;;;;;;;;;5052588;28;20029;-58
2021/05/27 09:59:49;;;;;;;4.03;1.67;;;;;;;;;;5052277;28;20075;-58
2021/05/27 10:02:17;;;;;;;2.60;1.33;;;;;;;;;;5052673;28;20053;-58
2021/05/27 10:04:59;;;;;;;5.80;2.57;;;;;;;;;;5052385;28;20029;-58
2021/05/27 10:07:45;;;;;;;6.07;1.90;;;;;;;;;;5052274;28;20025;-58
2021/05/27 10:10:13;;;;;;;2.30;1.20;;;;;;;;;;5052365;28;20121;-58
2021/05/27 10:12:41;;;;;;;3.23;1.70;;;;;;;;;;5052897;28;20373;-58
2021/05/27 10:15:09;;;;;;;7.30;2.30;;;;;;;;;;5052242;28;20055;-58
2021/05/27 10:17:39;;;;;;;2.90;1.43;;;;;;;;;;5052189;28;20492;-58
2021/05/27 10:20:10;;;;;;;4.43;1.53;;;;;;;;;;5052350;28;20456;-58
2021/05/27 10:22:37;;;;;;;5.17;2.13;;;;;;;;;;5052370;28;20552;-58
2021/05/27 10:25:05;;;;;;;4.63;1.40;;;;;;;;;;5052291;28;20423;-57
2021/05/27 10:27:32;;;;;;;2.10;1.10;;;;;;;;;;5052143;28;20017;-58
2021/05/27 10:29:59;;;;;;;4.13;1.53;;;;;;;;;;5034407;28;20055;-58
2021/05/27 10:32:27;;;;;;;3.23;1.20;;;;;;;;;;5052166;28;20013;-58
2021/05/27 10:34:55;;;;;;;3.60;1.40;;;;;;;;;;5052213;28;20017;-58
2021/05/27 10:37:37;;;;;;;3.50;1.40;;;;;;;;;;5053929;28;20553;-58
2021/05/27 10:40:23;;;;;;;2.90;1.10;;;;;;;;;;5055920;28;20105;-58
2021/05/27 10:43:08;;;;;;;3.83;1.53;;;;;;;;;;5055651;28;20021;-58
2021/05/27 10:45:36;;;;;;;2.00;1.20;;;;;;;;;;5055932;28;20103;-58
2021/05/27 10:48:15;;;;;;;4.47;1.27;;;;;;;;;;5055729;28;20440;-58
2021/05/27 10:51:00;;;;;;;2.43;1.10;;;;;;;;;;5055792;28;20044;-58
2021/05/27 10:53:27;;;;;;;;;;;;;;;;;;5056209;28;20017;-58
2021/05/27 10:55:54;;;;;;;6.70;1.70;;;;;;;;;;5055821;28;20245;-58
2021/05/27 10:58:41;;;;;;;3.97;1.40;;;;;;;;;;5055484;28;20028;-58
2021/05/27 11:01:07;;;;;;;3.57;1.47;;;;;;;;;;5055460;28;20025;-58
2021/05/27 11:03:46;;;;;;;4.80;1.60;;;;;;;;;;5055441;28;20032;-58
2021/05/27 11:06:29;;;;;;;3.60;1.40;;;;;;;;;;5055653;28;20142;-58
2021/05/27 11:11:43;;;;;;;4.40;1.50;;;;;;;;;;5055915;28;20475;-58
2021/05/27 11:14:17;;;;;;;4.55;1.52;;;;;;;;;;5055218;28;20403;-58
2021/05/27 11:17:05;;;;;;;6.50;1.80;;;;;;;;;;5055288;28;20079;-58
2021/05/27 11:20:07;;;;;;;5.57;1.60;;;;;;;;;;5055293;28;20017;-58
2021/05/27 11:22:36;;;;;;;3.60;1.40;;;;;;;;;;5055141;28;20037;-58
2021/05/27 11:25:14;;;;;;;3.13;1.70;;;;;;;;;;5055042;28;20074;-58
2021/05/27 11:27:49;;;;;;;4.30;1.37;;;;;;;;;;5054874;28;20447;-58
2021/05/27 11:30:19;;;;;;;3.70;1.67;;;;;;;;;;5055109;28;20021;-58
2021/05/27 11:32:46;;;;;;;2.80;1.50;;;;;;;;;;5055033;28;20028;-58
2021/05/27 11:35:14;;;;;;;2.83;1.10;;;;;;;;;;5054865;28;20031;-58
2021/05/27 11:37:43;;;;;;;6.50;1.80;;;;;;;;;;5054819;28;20128;-58
2021/05/27 11:40:12;;;;;;;5.93;1.20;;;;;;;;;;5054794;28;20029;-58
2021/05/27 11:42:39;;;;;;;4.17;1.50;;;;;;;;;;5054743;28;20430;-58
2021/05/27 11:45:07;;;;;;;3.40;1.63;;;;;;;;;;5054851;28;20021;-58
2021/05/27 11:47:34;;;;;;;5.23;1.40;;;;;;;;;;5054305;28;20032;-58
2021/05/27 11:50:10;;;;;;;2.93;1.30;;;;;;;;;;5054639;28;20480;-58
2021/05/27 11:52:38;;;;;;;2.17;1.33;;;;;;;;;;5054578;28;20025;-58
2021/05/27 11:55:05;;;;;;;3.60;1.57;;;;;;;;;;5054581;28;20112;-58
2021/05/27 11:57:49;;;;;;;3.93;1.33;;;;;;;;;;5054486;28;20104;-58
2021/05/27 12:00:21;;;;;;;3.07;1.20;;;;;;;;;;5054467;28;20028;-58
2021/05/27 12:02:52;;;;;;;3.07;1.50;;;;;;;;;;5054521;28;20025;-58
2021/05/27 12:05:18;;;;;;;5.10;1.20;;;;;;;;;;5054376;28;20043;-58
2021/05/27 12:07:57;;;;;;;4.70;1.90;;;;;;;;;;5054272;28;20037;-58
2021/05/27 12:10:25;;;;;;;6.87;2.43;;;;;;;;;;5054415;28;20024;-58
2021/05/27 12:12:52;;;;;;;8.63;3.33;;;;;;;;;;5054559;28;20060;-58
2021/05/27 12:15:21;;;;;;;5.50;2.80;;;;;;;;;;5054246;28;20029;-58
2021/05/27 12:17:49;;;;;;;4.70;2.27;;;;;;;;;;5054094;28;20064;-58
2021/05/27 12:20:19;;;;;;;8.37;2.63;;;;;;;;;;5054059;28;20052;-58
2021/05/27 12:22:55;;;;;;;4.33;1.77;;;;;;;;;;5054397;28;20021;-58
2021/05/27 12:25:23;;;;;;;4.80;2.00;;;;;;;;;;5053986;28;20018;-58
2021/05/27 12:27:52;;;;;;;5.63;2.20;;;;;;;;;;5053838;28;20041;-58
2021/05/27 12:30:23;;;;;;;4.13;2.03;;;;;;;;;;5053930;28;20029;-58
2021/05/27 12:32:51;;;;;;;4.57;1.93;;;;;;;;;;5053824;28;20032;-58
2021/05/27 12:35:28;;;;;;;5.90;2.37;;;;;;;;;;5053715;28;20098;-58
2021/05/27 12:37:57;;;;;;;5.83;2.30;;;;;;;;;;5053665;28;20025;-58
2021/05/27 12:40:33;;;;;;;4.70;2.20;;;;;;;;;;5053647;28;20025;-58
2021/05/27 12:43:01;;;;;;;4.70;2.30;;;;;;;;;;5053626;28;20027;-58
2021/05/27 12:45:30;;;;;;;7.10;2.67;;;;;;;;;;5035699;28;20037;-58
2021/05/27 12:48:07;;;;;;;5.40;2.40;;;;;;;;;;5053509;28;20456;-58
2021/05/27 12:50:37;;;;;;;8.27;2.80;;;;;;;;;;5053589;28;20495;-58
2021/05/27 12:53:05;;;;;;;5.37;2.47;;;;;;;;;;5053505;28;20021;-58
2021/05/27 12:55:34;;;;;;;8.10;2.10;;;;;;;;;;5053417;28;20469;-58
2021/05/27 12:58:03;;;;;;;4.93;2.20;;;;;;;;;;5053270;28;20029;-58
2021/05/27 13:00:45;;;;;;;5.37;2.47;;;;;;;;;;5052531;28;20469;-58
2021/05/27 13:03:12;;;;;;;4.60;2.40;;;;;;;;;;5053347;28;20021;-58
2021/05/27 13:05:38;;;;;;;7.13;2.37;;;;;;;;;;5053266;28;20025;-58
2021/05/27 13:08:06;;;;;;;4.70;2.27;;;;;;;;;;5053050;28;20078;-58
2021/05/27 13:10:32;;;;;;;5.50;2.10;;;;;;;;;;5053221;28;20028;-58
2021/05/27 13:12:59;;;;;;;7.80;3.07;;;;;;;;;;5053619;28;20044;-58
2021/05/27 13:15:26;;;;;;;14.60;3.57;;;;;;;;;;5053154;28;20020;-58
2021/05/27 13:18:04;;;;;;;6.23;2.53;;;;;;;;;;5053087;28;20025;-58
2021/05/27 13:20:31;;;;;;;9.70;2.67;;;;;;;;;;5053027;28;20033;-58
2021/05/27 13:22:58;;;;;;;7.37;2.53;;;;;;;;;;5035081;28;20609;-58
2021/05/27 13:25:30;;;;;;;5.63;2.67;;;;;;;;;;5053159;28;20033;-58
2021/05/27 13:27:58;;;;;;;7.27;2.70;;;;;;;;;;5052701;28;20047;-58
2021/05/27 13:30:32;;;;;;;9.27;2.90;;;;;;;;;;5052807;28;20032;-58
2021/05/27 13:33:09;;;;;;;6.25;2.80;;;;;;;;;;5052835;28;20396;-58
2021/05/27 13:35:36;;;;;;;8.63;3.20;;;;;;;;;;5052838;28;20028;-58
2021/05/27 13:38:03;;;;;;;5.73;2.20;;;;;;;;;;5052607;28;20179;-58
2021/05/27 13:40:34;;;;;;;9.60;2.40;;;;;;;;;;5052697;28;20013;-56
2021/05/27 13:43:01;;;;;;;7.97;3.10;;;;;;;;;;5052651;28;20021;-58
2021/05/27 13:45:30;;;;;;;6.13;2.67;;;;;;;;;;5052682;28;20032;-58
2021/05/27 13:48:00;;;;;;;10.20;5.50;;;;;;;;;;5052428;28;20032;-58
2021/05/27 13:50:35;;;;;;;6.00;2.93;;;;;;;;;;5052545;28;20439;-58
2021/05/27 13:53:08;;;;;;;10.83;2.00;;;;;;;;;;5051628;28;20442;-59
2021/05/27 13:55:55;;;;;;;4.47;1.87;;;;;;;;;;5052369;28;20031;-58
2021/05/27 13:58:34;;;;;;;6.97;1.67;;;;;;;;;;5051218;28;20040;-58
2021/05/27 14:01:08;;;;;;;6.57;1.53;;;;;;;;;;5052486;28;20043;-57
2021/05/27 14:03:46;;;;;;;4.43;1.57;;;;;;;;;;5050491;28;20076;-58
2021/05/27 14:06:25;;;;;;;3.63;1.60;;;;;;;;;;5033603;28;20473;-58
2021/05/27 14:08:59;;;;;;;9.63;2.43;;;;;;;;;;5052366;28;20029;-58
2021/05/27 14:11:25;;;;;;;4.00;1.77;;;;;;;;;;5054876;28;20117;-57
2021/05/27 14:14:09;;;;;;;4.97;1.50;;;;;;;;;;5056501;28;20028;-58
2021/05/27 14:16:41;;;;;;;6.00;2.00;;;;;;;;;;5056593;28;20025;-59
2021/05/27 14:19:12;;;;;;;4.23;2.20;;;;;;;;;;5053888;28;20037;-57
2021/05/27 14:21:39;;;;;;;3.77;1.20;;;;;;;;;;5056244;28;20488;-57
2021/05/27 14:24:06;;;;;;;3.23;1.33;;;;;;;;;;5056304;28;20028;-58
2021/05/27 14:26:40;;;;;;;3.93;1.27;;;;;;;;;;5056285;28;20029;-57
2021/05/27 14:29:15;;;;;;;2.30;1.13;;;;;;;;;;5056101;28;20029;-57
2021/05/27 14:31:48;;;;;;;;;;;;;;;;;;5056124;28;20434;-58
2021/05/27 14:34:15;;;;;;;4.37;1.60;;;;;;;;;;5055858;28;19904;-57
2021/05/27 14:36:45;;;;;;;10.13;2.07;;;;;;;;;;5056249;28;20021;-59
2021/05/27 14:39:15;;;;;;;6.73;1.67;;;;;;;;;;5055542;28;20057;-58
2021/05/27 14:41:51;;;;;;;7.47;2.10;;;;;;;;;;5055502;28;20040;-58
2021/05/27 14:44:18;;;;;;;4.17;1.43;;;;;;;;;;5055229;28;20117;-58
2021/05/27 14:46:45;;;;;;;3.33;1.13;;;;;;;;;;5056019;28;20052;-59
2021/05/27 14:49:11;;;;;;;1.57;1.07;;;;;;;;;;5055804;28;20103;-58
2021/05/27 14:51:38;;;;;;;1.97;1.20;;;;;;;;;;5055716;28;20063;-59
2021/05/27 14:54:16;;;;;;;5.67;1.67;;;;;;;;;;5055671;28;20369;-58
2021/05/27 14:56:53;;;;;;;3.80;1.50;;;;;;;;;;5055765;28;20384;-58
2021/05/27 14:59:27;;;;;;;2.17;1.30;;;;;;;;;;5055559;28;20025;-58
2021/05/27 15:01:53;;;;;;;2.97;1.42;;;;;;;;;;5055024;28;20545;-59
2021/05/27 15:04:24;;;;;;;3.27;1.20;;;;;;;;;;5055394;28;20507;-59
2021/05/27 15:07:01;;;;;;;4.00;1.73;;;;;;;;;;5055579;28;20103;-57